Time;durP1;ratioP1;P1;durP2;ratioP2;P2;SDS_P1;SDS_P2;PMS_P1;PMS_P2;Temp;Humidity;BMP_temperature;BMP_pressure;BME280_temperature;BME280_humidity;BME280_pressure;Samples;Min_cycle;Max_cycle;Signal;HPM_P1;HPM_P2
2022/02/10 00:20:13;;;;;;;6.38;4.82;;;5.60;99.90;;;;;;5067854;28;20206;-59
2022/02/10 00:36:13;;;;;;;4.50;3.70;;;5.30;99.90;;;;;;5061945;28;20193;-59
2022/02/10 00:38:46;;;;;;;4.45;3.65;;;5.30;99.90;;;;;;5066771;28;20179;-59
2022/02/10 00:41:12;;;;;;;4.75;4.15;;;5.30;99.90;;;;;;5062515;28;20232;-59
2022/02/10 00:43:38;;;;;;;3.70;3.37;;;5.30;99.90;;;;;;5066738;28;20208;-59
2022/02/10 00:46:03;;;;;;;4.80;3.60;;;5.30;99.90;;;;;;5075130;28;20181;-60
2022/02/10 00:48:30;;;;;;;3.87;3.50;;;5.40;99.90;;;;;;5057977;28;20262;-60
2022/02/10 00:50:58;;;;;;;4.88;3.92;;;5.20;99.90;;;;;;5072696;28;20191;-60
2022/02/10 00:53:27;;;;;;;5.60;3.85;;;5.00;99.90;;;;;;5070241;28;20757;-61
2022/02/10 00:55:53;;;;;;;4.20;3.80;;;5.30;99.90;;;;;;5053130;28;20219;-59
2022/02/10 00:58:23;;;;;;;4.50;4.00;;;5.20;99.90;;;;;;5068400;28;20641;-60
2022/02/10 01:24:28;;;;;;;3.70;3.33;;;5.00;99.90;;;;;;5086425;28;20593;-59
2022/02/10 01:30:57;;;;;;;3.67;3.38;;;4.90;99.90;;;;;;5055291;28;20609;-60
2022/02/10 01:33:23;;;;;;;4.70;3.60;;;5.10;99.90;;;;;;5060502;28;20625;-59
2022/02/10 01:35:49;;;;;;;5.27;4.00;;;5.00;99.90;;;;;;5069910;28;20293;-59
2022/02/10 01:38:14;;;;;;;4.20;3.60;;;5.30;99.90;;;;;;5061296;28;20524;-59
2022/02/10 02:04:48;;;;;;;3.97;3.60;;;4.90;99.90;;;;;;5071277;28;20320;-60
2022/02/10 02:07:13;;;;;;;5.40;3.40;;;4.70;99.90;;;;;;5070342;28;20188;-59
2022/02/10 02:09:39;;;;;;;4.77;3.10;;;4.60;99.90;;;;;;5069948;28;20440;-59
2022/02/10 02:12:08;;;;;;;4.30;3.40;;;5.00;99.90;;;;;;5065062;28;20207;-58
2022/02/10 02:14:36;;;;;;;6.00;3.50;;;4.90;99.90;;;;;;5064777;28;20220;-58
2022/02/10 02:17:05;;;;;;;4.00;3.70;;;4.80;99.90;;;;;;5065684;28;20238;-58
2022/02/10 02:19:32;;;;;;;3.10;2.80;;;4.90;99.90;;;;;;5069826;28;20222;-59
2022/02/10 02:22:00;;;;;;;5.20;3.53;;;4.80;99.90;;;;;;5072701;28;20230;-57
2022/02/10 02:24:26;;;;;;;3.45;3.15;;;4.90;99.90;;;;;;5064385;28;20214;-57
2022/02/10 02:26:53;;;;;;;4.87;2.83;;;4.90;99.90;;;;;;5066228;28;20671;-57
2022/02/10 02:29:28;;;;;;;3.53;3.22;;;4.90;99.90;;;;;;5062529;28;20182;-59
2022/02/10 02:32:07;;;;;;;4.85;3.20;;;5.00;99.90;;;;;;5061377;28;20186;-58
2022/02/10 03:12:39;;;;;;;2.50;2.30;;;5.20;99.90;;;;;;5060301;28;20229;-59
2022/02/10 03:15:10;;;;;;;3.10;2.80;;;5.40;99.90;;;;;;5071074;28;20217;-58
2022/02/10 03:20:35;;;;;;;3.30;3.00;;;5.30;99.90;;;;;;5070649;28;20339;-57
2022/02/10 04:12:35;;;;;;;4.90;3.10;;;4.70;99.90;;;;;;5072494;28;20668;-58
2022/02/10 04:57:39;;;;;;;4.20;3.17;;;4.40;99.90;;;;;;5066422;28;20294;-57
2022/02/10 05:24:43;;;;;;;2.80;2.60;;;5.20;99.90;;;;;;5061047;28;20199;-58
2022/02/10 05:31:31;;;;;;;4.65;3.20;;;5.30;99.90;;;;;;5074481;28;20182;-58
2022/02/10 05:46:48;;;;;;;3.20;2.90;;;5.80;99.90;;;;;;5059482;28;20626;-58
2022/02/10 05:57:14;;;;;;;4.85;2.58;;;6.20;99.90;;;;;;5061752;28;20188;-58
2022/02/10 06:56:30;;;;;;;17.80;5.13;;;5.50;99.90;;;;;;5063990;28;20711;-56
2022/02/10 07:05:10;;;;;;;3.95;3.30;;;5.30;99.90;;;;;;5068363;28;20215;-57
2022/02/10 07:07:36;;;;;;;10.05;3.97;;;5.20;99.90;;;;;;5059059;28;20195;-58
2022/02/10 07:59:11;;;;;;;8.90;6.38;;;7.00;99.90;;;;;;5051068;28;20248;-57
2022/02/10 08:49:39;;;;;;;5.72;3.80;;;8.00;98.50;;;;;;5071692;28;20265;-58
2022/02/10 08:54:34;;;;;;;5.50;2.88;;;9.10;96.30;;;;;;5070019;28;20326;-58
2022/02/10 09:15:38;;;;;;;4.20;3.28;;;11.90;93.90;;;;;;5062122;28;20607;-59
2022/02/10 09:25:59;;;;;;;6.30;3.90;;;13.50;84.60;;;;;;5061395;28;20201;-59
2022/02/10 09:51:41;;;;;;;4.13;3.35;;;17.90;70.60;;;;;;5065266;28;20566;-58
2022/02/10 10:03:21;;;;;;;5.90;3.40;;;18.10;65.40;;;;;;5059543;28;20182;-57
2022/02/10 10:06:11;;;;;;;7.32;6.43;;;18.30;65.50;;;;;;5070102;28;20470;-57
2022/02/10 10:55:43;;;;;;;5.93;3.70;;;17.60;65.80;;;;;;5063775;28;20749;-58
2022/02/10 10:58:15;;;;;;;5.00;4.50;;;17.00;68.00;;;;;;5061228;28;20182;-58
2022/02/10 11:01:10;;;;;;;7.28;4.03;;;16.60;70.30;;;;;;5074185;28;20210;-59
2022/02/10 11:05:37;;;;;;;8.00;4.50;;;16.20;71.70;;;;;;5057484;28;20674;-60
2022/02/10 11:41:09;;;;;;;7.43;4.82;;;15.30;76.60;;;;;;5060430;28;20209;-58
2022/02/10 11:44:09;;;;;;;5.72;4.50;;;15.60;76.00;;;;;;5058617;28;20277;-60
2022/02/10 13:27:57;;;;;;;15.70;7.97;;;12.40;92.50;;;;;;5065086;28;20178;-57
2022/02/10 13:31:04;;;;;;;10.68;7.70;;;12.20;92.90;;;;;;5065520;28;20277;-57
2022/02/10 14:14:50;;;;;;;8.00;6.03;;;11.00;97.20;;;;;;5072596;28;20228;-58
2022/02/10 14:17:27;;;;;;;9.35;7.03;;;11.00;97.30;;;;;;5060049;28;20536;-58
2022/02/10 14:19:59;;;;;;;7.78;6.93;;;10.80;97.60;;;;;;5068476;28;20193;-56
2022/02/10 14:22:38;;;;;;;6.88;6.18;;;10.60;97.70;;;;;;5070260;28;20193;-57
2022/02/10 14:27:49;;;;;;;7.65;5.20;;;10.80;97.70;;;;;;5052625;28;20602;-57
2022/02/10 14:30:15;;;;;;;7.10;6.18;;;10.50;97.90;;;;;;5057867;28;20221;-57
2022/02/10 14:32:44;;;;;;;10.70;6.65;;;10.50;98.00;;;;;;5057001;28;20178;-57
2022/02/10 14:35:21;;;;;;;7.00;6.07;;;10.50;98.40;;;;;;5049836;28;20229;-61
2022/02/10 14:40:34;;;;;;;6.80;6.10;;;10.50;98.50;;;;;;5064025;28;20593;-59
2022/02/10 15:14:11;;;;;;;8.90;6.72;;;9.70;99.90;;;;;;5063643;28;20678;-58
2022/02/10 15:33:08;;;;;;;13.70;6.93;;;9.70;99.90;;;;;;5055085;28;20189;-60
2022/02/10 16:17:43;;;;;;;10.20;7.03;;;9.70;99.90;;;;;;5053355;28;21437;-61
2022/02/10 16:20:11;;;;;;;10.65;7.63;;;9.90;99.90;;;;;;5066144;28;20216;-61
2022/02/10 16:22:39;;;;;;;7.80;7.00;;;9.60;99.90;;;;;;5064960;28;20258;-60
2022/02/10 16:25:09;;;;;;;13.85;8.05;;;9.70;99.90;;;;;;5059588;28;20255;-60
2022/02/10 16:27:37;;;;;;;11.45;7.80;;;9.90;99.90;;;;;;5056251;28;20315;-60
2022/02/10 16:30:12;;;;;;;12.45;6.78;;;9.80;99.90;;;;;;5088093;28;20208;-59
2022/02/10 16:32:41;;;;;;;9.40;6.60;;;9.40;99.90;;;;;;5055691;28;20757;-60
2022/02/10 16:35:09;;;;;;;8.25;7.40;;;9.70;99.90;;;;;;5059932;28;20197;-61
2022/02/10 16:37:36;;;;;;;9.73;8.40;;;9.50;99.90;;;;;;5062222;28;20639;-60
2022/02/10 16:40:03;;;;;;;6.85;6.05;;;9.80;99.90;;;;;;5060415;28;20189;-61
2022/02/10 16:42:29;;;;;;;5.63;4.50;;;9.50;99.90;;;;;;5060580;28;20226;-60
2022/02/10 16:44:55;;;;;;;6.97;4.80;;;9.70;98.30;;;;;;5071056;28;20326;-60
2022/02/10 16:47:21;;;;;;;4.90;4.20;;;9.70;97.30;;;;;;5060945;28;20189;-59
2022/02/10 16:49:50;;;;;;;4.67;4.17;;;9.70;96.90;;;;;;5059984;28;20173;-61
2022/02/10 16:52:22;;;;;;;6.00;4.35;;;10.00;96.20;;;;;;5068570;28;20248;-60
2022/02/10 16:54:51;;;;;;;5.47;4.15;;;9.80;96.20;;;;;;5071673;28;20328;-60
2022/02/10 17:00:16;;;;;;;9.25;5.07;;;9.60;95.20;;;;;;5066860;28;20197;-60
2022/02/10 17:05:35;;;;;;;4.60;3.67;;;9.50;95.10;;;;;;5059610;28;20206;-60
2022/02/10 17:19:11;;;;;;;4.50;3.97;;;9.50;94.70;;;;;;5053908;28;20557;-60
2022/02/10 17:27:37;;;;;;;4.53;3.53;;;9.50;94.70;;;;;;5059998;28;20193;-60
2022/02/10 17:32:43;;;;;;;4.70;3.33;;;9.40;94.40;;;;;;5061368;28;20198;-59
2022/02/10 17:35:34;;;;;;;3.67;3.22;;;9.60;94.70;;;;;;5067963;28;20203;-60
2022/02/10 17:53:38;;;;;;;5.47;3.25;;;9.50;94.50;;;;;;5051464;28;20195;-61
2022/02/10 17:56:07;;;;;;;4.60;3.95;;;9.60;94.70;;;;;;5059237;28;20231;-60
2022/02/10 17:58:33;;;;;;;6.50;3.50;;;9.30;94.40;;;;;;5065648;28;20868;-60
2022/02/10 18:00:59;;;;;;;5.85;4.10;;;9.60;94.90;;;;;;5063000;28;20205;-60
2022/02/10 18:03:26;;;;;;;5.10;3.70;;;9.50;94.80;;;;;;5059341;28;20574;-60
2022/02/10 18:08:24;;;;;;;5.53;3.65;;;9.50;95.10;;;;;;5062180;28;20196;-60
2022/02/10 18:13:45;;;;;;;3.92;3.53;;;9.10;95.00;;;;;;5061635;28;20280;-61
2022/02/10 18:16:18;;;;;;;6.50;5.03;;;9.10;95.40;;;;;;5055239;28;20181;-61
2022/02/10 18:18:52;;;;;;;4.00;3.58;;;9.20;95.50;;;;;;5052488;28;20199;-61
2022/02/10 18:24:02;;;;;;;4.07;3.67;;;9.20;95.70;;;;;;5059043;28;20227;-61
2022/02/10 18:29:18;;;;;;;4.28;3.88;;;9.20;95.20;;;;;;5059751;28;20182;-61
2022/02/10 18:36:33;;;;;;;5.85;3.53;;;9.30;95.60;;;;;;5051850;28;20320;-61
2022/02/10 19:09:49;;;;;;;4.30;3.90;;;9.20;96.70;;;;;;5058705;28;20300;-59
2022/02/10 19:12:24;;;;;;;4.55;3.75;;;9.20;96.60;;;;;;5060007;28;20187;-58
2022/02/10 19:14:55;;;;;;;4.43;3.13;;;9.10;96.60;;;;;;5061576;28;20208;-59
2022/02/10 19:17:24;;;;;;;4.40;3.53;;;9.30;96.50;;;;;;5061979;28;20185;-65
2022/02/10 19:19:50;;;;;;;3.58;3.28;;;9.20;96.40;;;;;;5056011;28;20216;-58
2022/02/10 19:22:18;;;;;;;3.70;3.10;;;9.10;96.60;;;;;;5060131;28;20336;-58
2022/02/10 19:24:43;;;;;;;4.70;4.30;;;9.10;96.50;;;;;;5057486;28;20683;-58
2022/02/10 19:27:09;;;;;;;5.93;4.37;;;9.00;96.40;;;;;;5061009;28;20187;-59
2022/02/10 19:29:35;;;;;;;5.13;3.90;;;9.40;96.50;;;;;;5061171;28;20213;-63
2022/02/10 19:32:02;;;;;;;5.55;3.78;;;9.10;96.40;;;;;;5063060;28;20471;-67
2022/02/10 19:34:33;;;;;;;4.10;3.65;;;9.10;96.40;;;;;;5056805;28;20216;-60
2022/02/10 19:36:58;;;;;;;3.88;3.30;;;9.30;96.60;;;;;;5067788;28;20677;-61
2022/02/10 19:39:26;;;;;;;5.33;4.20;;;9.40;96.70;;;;;;5060135;28;20225;-59
2022/02/10 19:41:53;;;;;;;4.00;3.63;;;9.00;96.50;;;;;;5052174;28;20561;-60
2022/02/10 19:44:19;;;;;;;4.53;3.35;;;9.10;96.60;;;;;;5064927;28;20599;-61
2022/02/10 19:46:45;;;;;;;3.55;2.63;;;9.00;96.70;;;;;;5068279;28;20189;-62
2022/02/10 19:49:18;;;;;;;4.03;3.53;;;9.10;96.90;;;;;;5054480;28;20226;-61
2022/02/10 19:51:45;;;;;;;4.30;3.90;;;9.40;97.10;;;;;;5059931;28;20462;-60
2022/02/10 19:54:11;;;;;;;8.23;4.20;;;8.90;97.00;;;;;;5065540;28;20197;-60
2022/02/10 19:56:39;;;;;;;4.40;3.70;;;8.80;97.40;;;;;;5053706;28;20196;-61
2022/02/10 19:59:06;;;;;;;3.83;3.53;;;8.70;97.50;;;;;;5062851;28;20230;-61
2022/02/10 20:01:32;;;;;;;4.38;3.97;;;8.60;97.50;;;;;;5066832;28;20205;-60
2022/02/10 20:04:00;;;;;;;4.40;4.00;;;8.90;97.70;;;;;;5053146;28;20204;-60
2022/02/10 20:06:26;;;;;;;6.22;3.88;;;8.80;97.90;;;;;;5059764;28;20188;-62
2022/02/10 20:08:52;;;;;;;5.10;4.20;;;8.70;98.40;;;;;;5067637;28;20557;-61
2022/02/10 20:11:17;;;;;;;10.60;4.80;;;8.50;99.00;;;;;;5064274;28;20189;-63
2022/02/10 20:13:43;;;;;;;7.93;4.10;;;8.40;99.10;;;;;;5065710;28;20662;-59
2022/02/10 20:16:11;;;;;;;12.00;5.33;;;8.60;99.20;;;;;;5058477;28;20570;-59
2022/02/10 20:18:37;;;;;;;6.38;4.88;;;8.30;99.30;;;;;;5054567;28;20448;-58
2022/02/10 20:21:04;;;;;;;6.27;4.37;;;8.60;99.50;;;;;;5059121;28;20213;-59
2022/02/10 20:23:33;;;;;;;7.75;4.35;;;8.50;99.50;;;;;;5065859;28;20447;-58
2022/02/10 20:26:03;;;;;;;5.60;4.15;;;8.40;99.10;;;;;;5067624;28;20184;-58
2022/02/10 20:28:29;;;;;;;4.35;3.90;;;8.60;99.80;;;;;;5062819;28;20754;-57
2022/02/10 20:30:56;;;;;;;5.15;4.40;;;8.30;99.90;;;;;;5065160;28;20193;-58
2022/02/10 20:33:25;;;;;;;5.25;4.50;;;8.20;99.90;;;;;;5066682;28;20203;-59
2022/02/10 20:35:54;;;;;;;7.05;5.05;;;8.50;99.90;;;;;;5063562;28;20228;-59
2022/02/10 20:38:21;;;;;;;7.18;4.55;;;8.10;99.90;;;;;;5069206;28;20593;-60
2022/02/10 20:40:54;;;;;;;4.22;3.83;;;8.20;99.90;;;;;;5064188;28;20248;-59
2022/02/10 20:43:20;;;;;;;4.60;4.20;;;8.30;99.90;;;;;;5071907;28;20180;-59
2022/02/10 20:45:53;;;;;;;5.70;4.30;;;8.10;99.90;;;;;;5067955;28;20209;-58
2022/02/10 20:48:19;;;;;;;4.65;4.25;;;8.00;99.90;;;;;;5071084;28;20184;-59
2022/02/10 20:50:51;;;;;;;9.98;4.85;;;8.20;99.90;;;;;;5063618;28;20209;-57
2022/02/10 20:53:17;;;;;;;4.88;4.38;;;8.20;99.90;;;;;;5064786;28;20181;-58
2022/02/10 20:55:43;;;;;;;6.35;4.40;;;8.00;99.90;;;;;;5067674;28;20289;-57
2022/02/10 20:58:09;;;;;;;14.37;10.33;;;8.10;99.90;;;;;;5063417;28;20271;-57
2022/02/10 21:00:35;;;;;;;5.43;4.60;;;8.30;99.90;;;;;;5067257;28;20255;-57
2022/02/10 21:03:00;;;;;;;5.60;4.60;;;8.30;99.90;;;;;;5060840;28;20531;-58
2022/02/10 21:08:08;;;;;;;5.70;4.57;;;8.30;99.90;;;;;;5064767;28;20431;-58
2022/02/10 21:10:36;;;;;;;5.85;4.78;;;7.90;99.90;;;;;;5066257;28;20932;-59
2022/02/10 21:13:04;;;;;;;6.80;5.10;;;7.80;99.90;;;;;;5063280;28;20200;-57
2022/02/10 21:15:37;;;;;;;4.68;4.10;;;8.10;99.90;;;;;;5062067;28;20209;-58
2022/02/10 21:18:05;;;;;;;6.05;4.50;;;7.40;99.90;;;;;;5061499;28;20264;-59
2022/02/10 21:20:33;;;;;;;21.48;18.30;;;7.90;99.90;;;;;;5060723;28;20668;-57
2022/02/10 21:23:07;;;;;;;5.30;3.97;;;8.00;99.90;;;;;;5071261;28;20266;-60
2022/02/10 21:25:37;;;;;;;7.00;6.30;;;8.00;99.90;;;;;;5069508;28;20205;-57
2022/02/10 21:28:10;;;;;;;9.73;5.25;;;7.90;99.90;;;;;;5054596;28;20269;-58
2022/02/10 21:30:36;;;;;;;4.97;4.38;;;7.80;99.90;;;;;;5057490;28;20243;-57
2022/02/10 21:33:04;;;;;;;8.37;6.17;;;8.00;99.90;;;;;;5066928;28;20662;-56
2022/02/10 21:36:37;;;;;;;5.88;5.15;;;7.90;99.90;;;;;;5069168;28;20524;-57
2022/02/10 21:38:24;;;;;;;5.65;5.05;;;7.90;99.90;;;;;;5066471;28;20204;-58
2022/02/10 22:20:48;;;;;;;4.90;4.40;;;7.60;99.90;;;;;;5072677;28;20511;-59
2022/02/10 22:23:20;;;;;;;5.47;4.95;;;8.20;99.90;;;;;;5072296;28;20528;-60
2022/02/10 22:25:48;;;;;;;6.03;4.68;;;8.40;99.90;;;;;;5066769;28;20240;-60
2022/02/10 22:31:23;;;;;;;7.88;5.18;;;8.60;99.90;;;;;;5062055;28;20253;-57
2022/02/10 22:36:15;;;;;;;6.65;4.72;;;8.60;99.90;;;;;;5068716;28;20192;-62
2022/02/10 22:38:41;;;;;;;6.75;5.55;;;8.70;99.90;;;;;;5072187;28;20547;-60
2022/02/10 22:41:10;;;;;;;5.57;5.07;;;8.40;99.90;;;;;;5055841;28;20204;-60
2022/02/10 22:43:40;;;;;;;6.15;5.65;;;8.50;99.90;;;;;;5051813;28;20447;-62
2022/02/10 22:46:07;;;;;;;6.47;5.20;;;8.30;99.90;;;;;;5064822;28;20183;-62
2022/02/10 22:48:33;;;;;;;6.03;5.43;;;8.50;99.90;;;;;;5064288;28;20181;-59
2022/02/10 22:50:59;;;;;;;5.90;5.30;;;8.20;99.90;;;;;;5070415;28;20205;-60
2022/02/10 22:53:25;;;;;;;5.68;4.65;;;8.50;99.90;;;;;;5071221;28;20189;-60
2022/02/10 22:55:51;;;;;;;6.80;4.83;;;8.50;99.90;;;;;;5068750;28;20204;-60
2022/02/10 22:58:17;;;;;;;9.33;3.97;;;8.30;99.90;;;;;;5056553;28;20209;-60
2022/02/10 23:00:47;;;;;;;4.30;3.90;;;8.70;99.90;;;;;;5065648;28;20216;-57
2022/02/10 23:03:15;;;;;;;5.30;4.57;;;8.50;99.90;;;;;;5062394;28;20177;-60
2022/02/10 23:05:41;;;;;;;5.93;4.57;;;8.90;99.90;;;;;;5069814;28;20197;-59
2022/02/10 23:08:07;;;;;;;5.20;4.70;;;8.70;99.90;;;;;;5067926;28;20663;-59
2022/02/10 23:10:45;;;;;;;5.37;4.60;;;8.40;99.90;;;;;;5064635;28;20207;-59
2022/02/10 23:13:13;;;;;;;5.13;4.63;;;8.60;99.90;;;;;;5065211;28;20447;-60
2022/02/10 23:15:39;;;;;;;4.75;4.32;;;8.40;99.90;;;;;;5062332;28;20205;-63
2022/02/10 23:18:10;;;;;;;6.22;4.60;;;8.50;99.90;;;;;;5058173;28;20182;-60
2022/02/10 23:20:36;;;;;;;6.30;4.05;;;8.80;99.90;;;;;;5069808;28;20180;-58
2022/02/10 23:23:05;;;;;;;4.90;4.38;;;8.50;99.90;;;;;;5065102;28;20238;-59
2022/02/10 23:25:32;;;;;;;5.07;4.47;;;8.70;99.90;;;;;;5060035;28;20698;-60
2022/02/10 23:27:59;;;;;;;5.78;4.32;;;8.60;99.90;;;;;;5059242;28;20178;-59
2022/02/10 23:30:24;;;;;;;5.15;4.65;;;8.80;99.90;;;;;;5063599;28;20183;-58
2022/02/10 23:32:54;;;;;;;5.40;4.63;;;8.70;99.90;;;;;;5059987;28;20627;-59
2022/02/10 23:38:17;;;;;;;5.55;4.30;;;8.60;99.90;;;;;;5056259;28;20269;-59
2022/02/10 23:41:11;;;;;;;4.47;4.07;;;8.80;99.90;;;;;;5067125;28;20212;-60
2022/02/10 23:43:28;;;;;;;5.65;4.28;;;8.70;99.90;;;;;;5055177;28;20189;-60
2022/02/10 23:45:54;;;;;;;6.20;4.73;;;8.60;99.90;;;;;;5063594;28;20659;-63
2022/02/10 23:48:20;;;;;;;6.33;4.80;;;8.70;99.90;;;;;;5057753;28;20193;-59
2022/02/10 23:50:45;;;;;;;5.50;4.60;;;8.50;99.90;;;;;;5064157;28;20284;-59
2022/02/10 23:53:11;;;;;;;4.50;4.10;;;8.80;99.90;;;;;;5067712;28;20185;-58
2022/02/10 23:55:39;;;;;;;5.03;4.33;;;8.80;99.90;;;;;;5056209;28;20201;-60
